sensor_id;sensor_type;location;lat;lon;timestamp;temperature;humidity
20594;DHT22;10455;48.732;10.266;2023-08-31T00:00:22;13.00;99.90
20594;DHT22;10455;48.732;10.266;2023-08-31T00:05:23;12.90;99.90
20594;DHT22;10455;48.732;10.266;2023-08-31T00:10:29;12.90;99.90
20594;DHT22;10455;48.732;10.266;2023-08-31T00:15:33;12.90;99.90
20594;DHT22;10455;48.732;10.266;2023-08-31T00:20:36;12.80;99.90
20594;DHT22;10455;48.732;10.266;2023-08-31T00:25:38;12.90;99.90
20594;DHT22;10455;48.732;10.266;2023-08-31T00:35:45;12.80;99.90
20594;DHT22;10455;48.732;10.266;2023-08-31T00:40:47;12.70;99.90
20594;DHT22;10455;48.732;10.266;2023-08-31T00:45:53;12.80;99.90
20594;DHT22;10455;48.732;10.266;2023-08-31T00:50:58;12.80;99.90
20594;DHT22;10455;48.732;10.266;2023-08-31T00:56:03;12.70;99.90
20594;DHT22;10455;48.732;10.266;2023-08-31T01:01:13;12.70;99.90
20594;DHT22;10455;48.732;10.266;2023-08-31T01:06:26;12.50;99.90
20594;DHT22;10455;48.732;10.266;2023-08-31T01:11:37;12.50;99.90
20594;DHT22;10455;48.732;10.266;2023-08-31T01:21:49;12.40;99.90
20594;DHT22;10455;48.732;10.266;2023-08-31T01:26:54;12.50;99.90
20594;DHT22;10455;48.732;10.266;2023-08-31T01:31:57;12.40;99.90
20594;DHT22;10455;48.732;10.266;2023-08-31T01:37:01;12.40;99.90
20594;DHT22;10455;48.732;10.266;2023-08-31T01:42:06;12.30;99.90
20594;DHT22;10455;48.732;10.266;2023-08-31T01:47:10;12.30;99.90
20594;DHT22;10455;48.732;10.266;2023-08-31T01:52:14;12.20;99.90
20594;DHT22;10455;48.732;10.266;2023-08-31T01:57:18;12.10;99.90
20594;DHT22;10455;48.732;10.266;2023-08-31T02:02:21;11.90;99.90
20594;DHT22;10455;48.732;10.266;2023-08-31T02:07:27;11.70;99.90
20594;DHT22;10455;48.732;10.266;2023-08-31T02:12:34;11.50;99.90
20594;DHT22;10455;48.732;10.266;2023-08-31T02:17:38;11.30;99.90
20594;DHT22;10455;48.732;10.266;2023-08-31T02:22:41;11.30;99.90
20594;DHT22;10455;48.732;10.266;2023-08-31T02:27:44;11.20;99.90
20594;DHT22;10455;48.732;10.266;2023-08-31T02:32:46;11.10;99.90
20594;DHT22;10455;48.732;10.266;2023-08-31T02:37:48;11.00;99.90
20594;DHT22;10455;48.732;10.266;2023-08-31T02:42:52;10.90;99.90
20594;DHT22;10455;48.732;10.266;2023-08-31T02:47:54;10.80;99.90
20594;DHT22;10455;48.732;10.266;2023-08-31T02:52:56;10.70;99.90
20594;DHT22;10455;48.732;10.266;2023-08-31T02:58:00;10.70;99.90
20594;DHT22;10455;48.732;10.266;2023-08-31T03:03:02;10.60;99.90
20594;DHT22;10455;48.732;10.266;2023-08-31T03:08:04;10.60;99.90
20594;DHT22;10455;48.732;10.266;2023-08-31T03:13:07;10.50;99.90
20594;DHT22;10455;48.732;10.266;2023-08-31T03:18:09;10.30;99.90
20594;DHT22;10455;48.732;10.266;2023-08-31T03:23:14;10.40;99.90
20594;DHT22;10455;48.732;10.266;2023-08-31T03:28:19;10.50;99.90
20594;DHT22;10455;48.732;10.266;2023-08-31T03:33:22;10.40;99.90
20594;DHT22;10455;48.732;10.266;2023-08-31T03:38:27;10.30;99.90
20594;DHT22;10455;48.732;10.266;2023-08-31T03:43:32;10.10;99.90
20594;DHT22;10455;48.732;10.266;2023-08-31T03:48:34;10.10;99.90
20594;DHT22;10455;48.732;10.266;2023-08-31T03:53:36;10.00;99.90
20594;DHT22;10455;48.732;10.266;2023-08-31T03:58:39;10.10;99.90
20594;DHT22;10455;48.732;10.266;2023-08-31T04:03:42;10.00;99.90
20594;DHT22;10455;48.732;10.266;2023-08-31T04:08:44;10.00;99.90
20594;DHT22;10455;48.732;10.266;2023-08-31T04:13:47;9.90;99.90
20594;DHT22;10455;48.732;10.266;2023-08-31T04:18:49;9.90;99.90
20594;DHT22;10455;48.732;10.266;2023-08-31T04:23:52;9.90;99.90
20594;DHT22;10455;48.732;10.266;2023-08-31T04:28:55;9.90;99.90
20594;DHT22;10455;48.732;10.266;2023-08-31T04:33:57;10.10;99.90
20594;DHT22;10455;48.732;10.266;2023-08-31T04:38:59;10.10;99.90
20594;DHT22;10455;48.732;10.266;2023-08-31T04:44:03;10.00;99.90
20594;DHT22;10455;48.732;10.266;2023-08-31T04:49:04;10.20;99.90
20594;DHT22;10455;48.732;10.266;2023-08-31T04:54:07;10.30;99.90
20594;DHT22;10455;48.732;10.266;2023-08-31T04:59:10;10.30;99.90
20594;DHT22;10455;48.732;10.266;2023-08-31T05:04:12;10.30;99.90
20594;DHT22;10455;48.732;10.266;2023-08-31T05:09:14;10.20;99.90
20594;DHT22;10455;48.732;10.266;2023-08-31T05:14:17;10.40;99.90
20594;DHT22;10455;48.732;10.266;2023-08-31T05:19:19;11.30;99.90
20594;DHT22;10455;48.732;10.266;2023-08-31T05:24:21;11.60;99.90
20594;DHT22;10455;48.732;10.266;2023-08-31T05:29:24;12.20;99.90
20594;DHT22;10455;48.732;10.266;2023-08-31T05:34:26;12.80;99.90
20594;DHT22;10455;48.732;10.266;2023-08-31T05:39:28;12.30;99.90
20594;DHT22;10455;48.732;10.266;2023-08-31T05:44:31;14.50;99.90
20594;DHT22;10455;48.732;10.266;2023-08-31T05:49:34;13.00;99.90
20594;DHT22;10455;48.732;10.266;2023-08-31T05:54:35;12.40;99.90
20594;DHT22;10455;48.732;10.266;2023-08-31T05:59:39;16.10;99.90
20594;DHT22;10455;48.732;10.266;2023-08-31T06:04:41;20.50;99.90
20594;DHT22;10455;48.732;10.266;2023-08-31T06:09:43;22.10;99.90
20594;DHT22;10455;48.732;10.266;2023-08-31T06:14:46;22.30;99.90
20594;DHT22;10455;48.732;10.266;2023-08-31T06:19:48;23.70;99.90
20594;DHT22;10455;48.732;10.266;2023-08-31T06:24:50;22.70;99.90
20594;DHT22;10455;48.732;10.266;2023-08-31T06:29:54;19.60;99.90
20594;DHT22;10455;48.732;10.266;2023-08-31T06:34:56;21.30;99.90
20594;DHT22;10455;48.732;10.266;2023-08-31T06:39:58;24.50;99.90
20594;DHT22;10455;48.732;10.266;2023-08-31T06:45:02;26.30;99.90
20594;DHT22;10455;48.732;10.266;2023-08-31T06:50:06;25.60;99.90
20594;DHT22;10455;48.732;10.266;2023-08-31T06:55:08;24.60;99.90
20594;DHT22;10455;48.732;10.266;2023-08-31T07:00:15;23.10;99.90
20594;DHT22;10455;48.732;10.266;2023-08-31T07:05:17;18.70;99.90
20594;DHT22;10455;48.732;10.266;2023-08-31T07:10:25;16.70;99.90
20594;DHT22;10455;48.732;10.266;2023-08-31T07:15:29;15.90;99.90
20594;DHT22;10455;48.732;10.266;2023-08-31T07:20:31;15.60;99.90
20594;DHT22;10455;48.732;10.266;2023-08-31T07:25:34;16.00;99.90
20594;DHT22;10455;48.732;10.266;2023-08-31T07:30:39;24.20;99.90
20594;DHT22;10455;48.732;10.266;2023-08-31T07:35:41;24.10;99.90
20594;DHT22;10455;48.732;10.266;2023-08-31T07:40:43;24.70;99.90
20594;DHT22;10455;48.732;10.266;2023-08-31T07:45:47;24.00;99.90
20594;DHT22;10455;48.732;10.266;2023-08-31T07:50:49;22.00;99.90
20594;DHT22;10455;48.732;10.266;2023-08-31T07:55:52;22.20;99.90
20594;DHT22;10455;48.732;10.266;2023-08-31T08:00:56;23.90;99.90
20594;DHT22;10455;48.732;10.266;2023-08-31T08:05:59;23.70;99.90
20594;DHT22;10455;48.732;10.266;2023-08-31T08:11:01;23.70;99.90
20594;DHT22;10455;48.732;10.266;2023-08-31T08:16:05;20.80;99.90
20594;DHT22;10455;48.732;10.266;2023-08-31T08:21:08;22.20;99.90
20594;DHT22;10455;48.732;10.266;2023-08-31T08:26:10;22.70;99.90
20594;DHT22;10455;48.732;10.266;2023-08-31T08:31:13;25.30;99.90
20594;DHT22;10455;48.732;10.266;2023-08-31T08:36:15;27.20;99.90
20594;DHT22;10455;48.732;10.266;2023-08-31T08:41:18;27.00;95.80
20594;DHT22;10455;48.732;10.266;2023-08-31T08:46:25;23.30;99.90
20594;DHT22;10455;48.732;10.266;2023-08-31T08:51:27;23.00;99.90
20594;DHT22;10455;48.732;10.266;2023-08-31T08:56:29;22.30;99.90
20594;DHT22;10455;48.732;10.266;2023-08-31T09:01:33;25.50;99.40
20594;DHT22;10455;48.732;10.266;2023-08-31T09:06:36;26.30;95.80
20594;DHT22;10455;48.732;10.266;2023-08-31T09:11:38;22.90;97.40
20594;DHT22;10455;48.732;10.266;2023-08-31T09:16:44;19.90;99.10
20594;DHT22;10455;48.732;10.266;2023-08-31T09:21:47;21.20;98.00
20594;DHT22;10455;48.732;10.266;2023-08-31T09:26:52;21.70;98.20
20594;DHT22;10455;48.732;10.266;2023-08-31T09:31:57;20.90;97.10
20594;DHT22;10455;48.732;10.266;2023-08-31T09:37:04;20.10;97.30
20594;DHT22;10455;48.732;10.266;2023-08-31T09:42:06;22.00;95.20
20594;DHT22;10455;48.732;10.266;2023-08-31T09:47:10;24.40;94.90
20594;DHT22;10455;48.732;10.266;2023-08-31T09:52:12;24.20;95.10
20594;DHT22;10455;48.732;10.266;2023-08-31T09:57:15;25.60;91.20
20594;DHT22;10455;48.732;10.266;2023-08-31T10:02:19;24.60;92.80
20594;DHT22;10455;48.732;10.266;2023-08-31T10:07:22;24.30;89.00
20594;DHT22;10455;48.732;10.266;2023-08-31T10:12:24;22.70;91.90
20594;DHT22;10455;48.732;10.266;2023-08-31T10:17:28;23.50;92.70
20594;DHT22;10455;48.732;10.266;2023-08-31T10:22:31;24.90;91.80
20594;DHT22;10455;48.732;10.266;2023-08-31T10:27:37;26.50;89.20
20594;DHT22;10455;48.732;10.266;2023-08-31T10:32:41;25.10;90.30
20594;DHT22;10455;48.732;10.266;2023-08-31T10:37:43;25.90;90.90
20594;DHT22;10455;48.732;10.266;2023-08-31T10:42:45;26.80;90.90
20594;DHT22;10455;48.732;10.266;2023-08-31T10:47:49;24.80;91.10
20594;DHT22;10455;48.732;10.266;2023-08-31T10:52:51;26.10;90.60
20594;DHT22;10455;48.732;10.266;2023-08-31T10:57:53;24.90;92.20
20594;DHT22;10455;48.732;10.266;2023-08-31T11:03:02;25.30;91.70
20594;DHT22;10455;48.732;10.266;2023-08-31T11:08:05;23.00;94.30
20594;DHT22;10455;48.732;10.266;2023-08-31T11:13:15;21.40;95.40
20594;DHT22;10455;48.732;10.266;2023-08-31T11:18:20;21.50;96.20
20594;DHT22;10455;48.732;10.266;2023-08-31T11:23:22;23.40;93.90
20594;DHT22;10455;48.732;10.266;2023-08-31T11:28:24;24.60;91.80
20594;DHT22;10455;48.732;10.266;2023-08-31T11:33:32;22.70;94.30
20594;DHT22;10455;48.732;10.266;2023-08-31T11:38:35;22.80;94.30
20594;DHT22;10455;48.732;10.266;2023-08-31T11:43:37;23.00;93.90
20594;DHT22;10455;48.732;10.266;2023-08-31T11:48:40;21.50;96.60
20594;DHT22;10455;48.732;10.266;2023-08-31T11:53:42;20.50;99.40
20594;DHT22;10455;48.732;10.266;2023-08-31T11:58:44;20.20;99.90
20594;DHT22;10455;48.732;10.266;2023-08-31T12:03:49;21.60;98.80
20594;DHT22;10455;48.732;10.266;2023-08-31T12:08:51;23.70;94.90
20594;DHT22;10455;48.732;10.266;2023-08-31T12:13:53;23.60;94.90
20594;DHT22;10455;48.732;10.266;2023-08-31T12:19:00;23.40;94.70
20594;DHT22;10455;48.732;10.266;2023-08-31T12:24:05;22.20;95.40
20594;DHT22;10455;48.732;10.266;2023-08-31T12:29:07;22.30;96.00
20594;DHT22;10455;48.732;10.266;2023-08-31T12:34:10;23.00;95.80
20594;DHT22;10455;48.732;10.266;2023-08-31T12:39:12;21.90;96.80
20594;DHT22;10455;48.732;10.266;2023-08-31T12:44:14;21.10;97.70
20594;DHT22;10455;48.732;10.266;2023-08-31T12:49:18;22.00;95.80
20594;DHT22;10455;48.732;10.266;2023-08-31T12:54:22;21.80;96.90
20594;DHT22;10455;48.732;10.266;2023-08-31T12:59:24;23.40;94.80
20594;DHT22;10455;48.732;10.266;2023-08-31T13:04:27;23.50;95.00
20594;DHT22;10455;48.732;10.266;2023-08-31T13:09:29;23.40;94.00
20594;DHT22;10455;48.732;10.266;2023-08-31T13:14:31;22.60;96.30
20594;DHT22;10455;48.732;10.266;2023-08-31T13:19:36;23.00;96.80
20594;DHT22;10455;48.732;10.266;2023-08-31T13:24:38;24.00;94.30
20594;DHT22;10455;48.732;10.266;2023-08-31T13:29:40;24.10;93.90
20594;DHT22;10455;48.732;10.266;2023-08-31T13:34:43;24.60;94.30
20594;DHT22;10455;48.732;10.266;2023-08-31T13:39:46;25.10;93.00
20594;DHT22;10455;48.732;10.266;2023-08-31T13:44:47;25.40;92.20
20594;DHT22;10455;48.732;10.266;2023-08-31T13:49:51;26.40;91.20
20594;DHT22;10455;48.732;10.266;2023-08-31T13:54:52;26.30;88.30
20594;DHT22;10455;48.732;10.266;2023-08-31T13:59:54;26.30;90.10
20594;DHT22;10455;48.732;10.266;2023-08-31T14:04:58;26.90;85.70
20594;DHT22;10455;48.732;10.266;2023-08-31T14:10:00;27.00;90.70
20594;DHT22;10455;48.732;10.266;2023-08-31T14:15:02;27.60;86.70
20594;DHT22;10455;48.732;10.266;2023-08-31T14:20:07;27.00;85.80
20594;DHT22;10455;48.732;10.266;2023-08-31T14:25:10;27.00;85.30
20594;DHT22;10455;48.732;10.266;2023-08-31T14:30:12;27.10;85.40
20594;DHT22;10455;48.732;10.266;2023-08-31T14:35:15;26.30;90.10
20594;DHT22;10455;48.732;10.266;2023-08-31T14:40:19;26.50;85.80
20594;DHT22;10455;48.732;10.266;2023-08-31T14:45:21;27.10;84.70
20594;DHT22;10455;48.732;10.266;2023-08-31T14:50:24;24.70;87.50
20594;DHT22;10455;48.732;10.266;2023-08-31T14:55:26;25.90;89.90
20594;DHT22;10455;48.732;10.266;2023-08-31T15:00:28;25.70;85.40
20594;DHT22;10455;48.732;10.266;2023-08-31T15:05:31;24.80;89.50
20594;DHT22;10455;48.732;10.266;2023-08-31T15:10:34;25.70;86.70
20594;DHT22;10455;48.732;10.266;2023-08-31T15:15:36;24.30;89.70
20594;DHT22;10455;48.732;10.266;2023-08-31T15:20:41;25.10;89.10
20594;DHT22;10455;48.732;10.266;2023-08-31T15:25:43;26.20;88.70
20594;DHT22;10455;48.732;10.266;2023-08-31T15:30:45;26.60;86.50
20594;DHT22;10455;48.732;10.266;2023-08-31T15:35:48;24.80;90.60
20594;DHT22;10455;48.732;10.266;2023-08-31T15:40:50;25.10;91.10
20594;DHT22;10455;48.732;10.266;2023-08-31T15:45:52;25.00;89.20
20594;DHT22;10455;48.732;10.266;2023-08-31T15:50:56;24.50;92.20
20594;DHT22;10455;48.732;10.266;2023-08-31T15:55:59;23.40;92.80
20594;DHT22;10455;48.732;10.266;2023-08-31T16:01:01;22.70;94.80
20594;DHT22;10455;48.732;10.266;2023-08-31T16:06:06;22.50;94.90
20594;DHT22;10455;48.732;10.266;2023-08-31T16:11:09;22.00;96.30
20594;DHT22;10455;48.732;10.266;2023-08-31T16:16:11;21.70;96.30
20594;DHT22;10455;48.732;10.266;2023-08-31T16:21:15;21.70;98.10
20594;DHT22;10455;48.732;10.266;2023-08-31T16:26:17;21.50;98.20
20594;DHT22;10455;48.732;10.266;2023-08-31T16:31:18;21.00;98.70
20594;DHT22;10455;48.732;10.266;2023-08-31T16:36:22;20.80;99.70
20594;DHT22;10455;48.732;10.266;2023-08-31T16:41:25;20.20;99.90
20594;DHT22;10455;48.732;10.266;2023-08-31T16:46:26;20.20;99.90
20594;DHT22;10455;48.732;10.266;2023-08-31T16:51:30;20.00;99.90
20594;DHT22;10455;48.732;10.266;2023-08-31T16:56:32;19.90;99.90
20594;DHT22;10455;48.732;10.266;2023-08-31T17:01:33;19.80;99.90
20594;DHT22;10455;48.732;10.266;2023-08-31T17:06:37;19.40;99.90
20594;DHT22;10455;48.732;10.266;2023-08-31T17:11:39;18.80;99.90
20594;DHT22;10455;48.732;10.266;2023-08-31T17:16:40;18.20;99.90
20594;DHT22;10455;48.732;10.266;2023-08-31T17:21:44;17.90;99.90
20594;DHT22;10455;48.732;10.266;2023-08-31T17:26:46;17.80;99.90
20594;DHT22;10455;48.732;10.266;2023-08-31T17:31:48;17.80;99.90
20594;DHT22;10455;48.732;10.266;2023-08-31T17:36:51;17.50;99.90
20594;DHT22;10455;48.732;10.266;2023-08-31T17:41:53;17.20;99.90
20594;DHT22;10455;48.732;10.266;2023-08-31T17:46:55;17.10;99.90
20594;DHT22;10455;48.732;10.266;2023-08-31T17:51:58;16.80;99.90
20594;DHT22;10455;48.732;10.266;2023-08-31T17:57:00;16.60;99.90
20594;DHT22;10455;48.732;10.266;2023-08-31T18:02:03;16.40;99.90
20594;DHT22;10455;48.732;10.266;2023-08-31T18:07:06;16.20;99.90
20594;DHT22;10455;48.732;10.266;2023-08-31T18:12:08;16.00;99.90
20594;DHT22;10455;48.732;10.266;2023-08-31T18:17:10;15.60;99.90
20594;DHT22;10455;48.732;10.266;2023-08-31T18:22:14;15.40;99.90
20594;DHT22;10455;48.732;10.266;2023-08-31T18:27:15;15.20;99.90
20594;DHT22;10455;48.732;10.266;2023-08-31T18:32:18;15.10;99.90
20594;DHT22;10455;48.732;10.266;2023-08-31T18:37:21;15.00;99.90
20594;DHT22;10455;48.732;10.266;2023-08-31T18:42:24;15.00;99.90
20594;DHT22;10455;48.732;10.266;2023-08-31T18:47:28;15.10;99.90
20594;DHT22;10455;48.732;10.266;2023-08-31T18:52:31;15.10;99.90
20594;DHT22;10455;48.732;10.266;2023-08-31T18:57:33;15.10;99.90
20594;DHT22;10455;48.732;10.266;2023-08-31T19:02:34;15.00;99.90
20594;DHT22;10455;48.732;10.266;2023-08-31T19:07:39;15.10;99.90
20594;DHT22;10455;48.732;10.266;2023-08-31T19:12:41;15.10;99.90
20594;DHT22;10455;48.732;10.266;2023-08-31T19:17:45;15.10;99.90
20594;DHT22;10455;48.732;10.266;2023-08-31T19:22:48;15.00;99.90
20594;DHT22;10455;48.732;10.266;2023-08-31T19:27:50;15.00;99.90
20594;DHT22;10455;48.732;10.266;2023-08-31T19:32:52;15.00;99.90
20594;DHT22;10455;48.732;10.266;2023-08-31T19:37:55;15.00;99.90
20594;DHT22;10455;48.732;10.266;2023-08-31T19:42:57;14.80;99.90
20594;DHT22;10455;48.732;10.266;2023-08-31T19:47:59;14.60;99.90
20594;DHT22;10455;48.732;10.266;2023-08-31T19:53:03;14.60;99.90
20594;DHT22;10455;48.732;10.266;2023-08-31T19:58:06;14.50;99.90
20594;DHT22;10455;48.732;10.266;2023-08-31T20:03:08;14.40;99.90
20594;DHT22;10455;48.732;10.266;2023-08-31T20:08:11;14.40;99.90
20594;DHT22;10455;48.732;10.266;2023-08-31T20:13:13;14.30;99.90
20594;DHT22;10455;48.732;10.266;2023-08-31T20:18:15;14.20;99.90
20594;DHT22;10455;48.732;10.266;2023-08-31T20:23:18;14.20;99.90
20594;DHT22;10455;48.732;10.266;2023-08-31T20:28:22;14.10;99.90
20594;DHT22;10455;48.732;10.266;2023-08-31T20:33:24;14.20;99.90
20594;DHT22;10455;48.732;10.266;2023-08-31T20:38:28;14.10;99.90
20594;DHT22;10455;48.732;10.266;2023-08-31T20:43:30;14.10;99.90
20594;DHT22;10455;48.732;10.266;2023-08-31T20:48:32;14.20;99.90
20594;DHT22;10455;48.732;10.266;2023-08-31T20:53:36;14.20;99.90
20594;DHT22;10455;48.732;10.266;2023-08-31T20:58:38;14.30;99.90
20594;DHT22;10455;48.732;10.266;2023-08-31T21:08:45;14.00;99.90
20594;DHT22;10455;48.732;10.266;2023-08-31T21:13:47;14.00;99.90
20594;DHT22;10455;48.732;10.266;2023-08-31T21:18:52;13.80;99.90
20594;DHT22;10455;48.732;10.266;2023-08-31T21:29:02;14.00;99.90
20594;DHT22;10455;48.732;10.266;2023-08-31T21:34:04;14.00;99.90
20594;DHT22;10455;48.732;10.266;2023-08-31T21:39:09;14.00;99.90
20594;DHT22;10455;48.732;10.266;2023-08-31T21:44:12;13.90;99.90
20594;DHT22;10455;48.732;10.266;2023-08-31T21:49:14;13.90;99.90
20594;DHT22;10455;48.732;10.266;2023-08-31T21:54:22;13.90;99.90
20594;DHT22;10455;48.732;10.266;2023-08-31T21:59:24;13.80;99.90
20594;DHT22;10455;48.732;10.266;2023-08-31T22:04:26;13.80;99.90
20594;DHT22;10455;48.732;10.266;2023-08-31T22:14:33;13.60;99.90
20594;DHT22;10455;48.732;10.266;2023-08-31T22:19:35;13.50;99.90
20594;DHT22;10455;48.732;10.266;2023-08-31T22:29:44;13.40;99.90
20594;DHT22;10455;48.732;10.266;2023-08-31T22:34:47;13.50;99.90
20594;DHT22;10455;48.732;10.266;2023-08-31T22:39:50;13.60;99.90
20594;DHT22;10455;48.732;10.266;2023-08-31T22:44:53;13.50;99.90
20594;DHT22;10455;48.732;10.266;2023-08-31T22:49:55;13.60;99.90
20594;DHT22;10455;48.732;10.266;2023-08-31T22:54:59;13.70;99.90
20594;DHT22;10455;48.732;10.266;2023-08-31T23:00:02;13.80;99.90
20594;DHT22;10455;48.732;10.266;2023-08-31T23:05:08;13.80;99.90
20594;DHT22;10455;48.732;10.266;2023-08-31T23:10:12;13.80;99.90
20594;DHT22;10455;48.732;10.266;2023-08-31T23:15:14;13.70;99.90
20594;DHT22;10455;48.732;10.266;2023-08-31T23:20:17;13.70;99.90
20594;DHT22;10455;48.732;10.266;2023-08-31T23:25:21;13.90;99.90
20594;DHT22;10455;48.732;10.266;2023-08-31T23:30:28;13.90;99.90
20594;DHT22;10455;48.732;10.266;2023-08-31T23:40:33;13.90;99.90
20594;DHT22;10455;48.732;10.266;2023-08-31T23:45:38;13.80;99.90
20594;DHT22;10455;48.732;10.266;2023-08-31T23:50:42;13.80;99.90
20594;DHT22;10455;48.732;10.266;2023-08-31T23:55:46;13.80;99.90
